Aviation Digital Data Service (ADDS)

Output produced by METARs form (0004 UTC 24 May 2022)
found at http://www.aviationweather.gov/metar/data/
 
VYMD 232330Z 00000KT 6000 BKN020 FEW025CB BKN100 26/25 Q1003
TAF VYMD 232300Z 2400/2424 15005KT 7000 BKN020 FEW025CB 
     TEMPO 2400/2406 18007KT 6000 BKN018 FEW020CB BKN100
       
VYYY 232330Z 21004KT 6000 SCT015 FEW020CB BKN100 26/25 Q1004 NOSIG
TAF VYYY 232300Z 2400/2424 23008KT 7000 BKN012 FEW018CB OVC090 
     TEMPO 2400/2406 22008G18KT 3000 TSRA 
     TEMPO 2406/2412 3000 RA